createdAt,value
2023-11-23T00:00:16.014Z,102284.98
2023-11-23T00:03:03.341Z,102285.58
2023-11-23T00:05:30.268Z,102286.14
2023-11-23T00:07:57.167Z,102287.23
2023-11-23T00:10:24.537Z,102281.84
2023-11-23T00:12:51.469Z,102283.74
2023-11-23T00:15:18.454Z,102278.51
2023-11-23T00:17:45.380Z,102275.61
2023-11-23T00:20:12.534Z,102269.41
2023-11-23T00:22:39.281Z,102264.06
2023-11-23T00:25:12.305Z,102274.23
2023-11-23T00:27:39.186Z,102268.90
2023-11-23T00:30:07.632Z,102259.63
2023-11-23T00:32:34.748Z,102253.17
2023-11-23T00:35:01.732Z,102250.23
2023-11-23T00:37:29.475Z,102255.09
2023-11-23T00:39:56.427Z,102255.77
2023-11-23T00:42:25.198Z,102259.69
2023-11-23T00:44:52.193Z,102257.92
2023-11-23T00:47:20.179Z,102251.34
2023-11-23T00:49:47.113Z,102255.91
2023-11-23T00:52:14.110Z,102251.46
2023-11-23T00:54:41.039Z,102249.05
2023-11-23T00:57:07.972Z,102239.47
2023-11-23T00:59:34.846Z,102240.24
2023-11-23T01:02:04.277Z,102239.45
2023-11-23T01:04:31.680Z,102240.87
2023-11-23T01:06:58.903Z,102236.04
2023-11-23T01:09:26.880Z,102233.53
2023-11-23T01:11:55.220Z,102234.73
2023-11-23T01:14:22.111Z,102229.07
2023-11-23T01:16:49.064Z,102226.13
2023-11-23T01:19:16.155Z,102223.86
2023-11-23T01:21:44.389Z,102228.42
2023-11-23T01:24:12.459Z,102231.63
2023-11-23T01:26:39.413Z,102229.60
2023-11-23T01:29:06.387Z,102228.17
2023-11-23T01:31:33.260Z,102235.27
2023-11-23T01:34:00.891Z,102234.77
2023-11-23T01:36:28.059Z,102245.94
2023-11-23T01:38:55.091Z,102246.16
2023-11-23T01:41:22.863Z,102251.11
2023-11-23T01:43:49.782Z,102248.41
2023-11-23T01:46:16.826Z,102245.25
2023-11-23T01:48:45.124Z,102245.38
2023-11-23T01:51:14.780Z,102252.10
2023-11-23T01:53:42.622Z,102251.46
2023-11-23T01:56:12.372Z,102254.35
2023-11-23T01:58:39.328Z,102259.10
2023-11-23T02:01:06.857Z,102254.44
2023-11-23T02:03:34.507Z,102249.19
2023-11-23T02:06:01.599Z,102243.29
2023-11-23T02:08:28.678Z,102248.05
2023-11-23T02:10:57.202Z,102243.94
2023-11-23T02:13:24.770Z,102251.98
2023-11-23T02:15:51.673Z,102254.08
2023-11-23T02:18:18.748Z,102243.63
2023-11-23T02:20:47.198Z,102234.45
2023-11-23T02:23:14.123Z,102230.95
2023-11-23T02:25:41.119Z,102224.59
2023-11-23T02:28:08.860Z,102216.92
2023-11-23T02:30:35.752Z,102215.13
2023-11-23T02:33:04.266Z,102207.44
2023-11-23T02:35:31.265Z,102205.20
2023-11-23T02:37:58.147Z,102209.50
2023-11-23T02:40:25.072Z,102205.67
2023-11-23T02:42:52.055Z,102198.45
2023-11-23T02:45:19.061Z,102199.77
2023-11-23T02:47:46.190Z,102204.20
2023-11-23T02:50:13.321Z,102192.95
2023-11-23T02:52:40.143Z,102191.77
2023-11-23T02:55:08.668Z,102193.11
2023-11-23T02:57:35.641Z,102190.80
2023-11-23T03:00:03.456Z,102195.25
2023-11-23T03:02:32.460Z,102194.02
2023-11-23T03:04:59.539Z,102191.08
2023-11-23T03:07:26.302Z,102189.27
2023-11-23T03:09:53.140Z,102188.80
2023-11-23T03:12:20.121Z,102187.73
2023-11-23T03:14:47.007Z,102188.09
2023-11-23T03:17:13.765Z,102185.05
2023-11-23T03:19:40.803Z,102187.61
2023-11-23T03:22:07.904Z,102185.52
2023-11-23T03:24:34.864Z,102185.75
2023-11-23T03:27:01.873Z,102183.01
2023-11-23T03:29:29.027Z,102185.25
2023-11-23T03:31:55.914Z,102186.98
2023-11-23T03:34:22.816Z,102181.32
2023-11-23T03:36:49.654Z,102178.44
2023-11-23T03:39:18.833Z,102175.38
2023-11-23T03:41:46.356Z,102166.55
2023-11-23T03:44:13.307Z,102159.25
2023-11-23T03:46:41.211Z,102153.72
2023-11-23T03:49:08.503Z,102142.30
2023-11-23T03:51:36.933Z,102133.23
2023-11-23T03:54:04.331Z,102124.11
2023-11-23T03:56:31.446Z,102124.33
2023-11-23T03:58:58.483Z,102113.51
2023-11-23T04:01:25.509Z,102113.11
2023-11-23T04:03:52.454Z,102108.00
2023-11-23T04:06:19.462Z,102110.11
2023-11-23T04:08:48.261Z,102110.47
2023-11-23T04:11:15.296Z,102103.84
2023-11-23T04:13:42.324Z,102100.64
2023-11-23T04:16:09.697Z,102093.13
2023-11-23T04:18:36.733Z,102094.84
2023-11-23T04:21:04.789Z,102097.50
2023-11-23T04:24:13.087Z,102095.02
2023-11-23T04:26:44.612Z,102100.73
2023-11-23T04:33:00.687Z,102101.46
2023-11-23T04:35:29.338Z,102104.66
2023-11-23T04:37:58.296Z,102098.73
2023-11-23T04:40:26.886Z,102094.65
2023-11-23T04:42:55.315Z,102090.91
2023-11-23T04:45:23.793Z,102089.58
2023-11-23T04:47:52.203Z,102086.49
2023-11-23T04:50:22.517Z,102084.85
2023-11-23T04:52:51.167Z,102084.27
2023-11-23T04:55:21.231Z,102085.34
2023-11-23T04:57:49.796Z,102077.25
2023-11-23T05:00:26.199Z,102074.84
2023-11-23T05:02:58.508Z,102062.93
2023-11-23T05:05:27.734Z,102055.02
2023-11-23T05:07:56.150Z,102051.50
2023-11-23T05:10:24.740Z,102048.15
2023-11-23T05:12:53.382Z,102042.29
2023-11-23T05:15:22.721Z,102034.00
2023-11-23T05:17:51.232Z,102029.69
2023-11-23T05:20:20.140Z,102025.83
2023-11-23T05:22:48.446Z,102018.36
2023-11-23T05:25:16.701Z,102016.35
2023-11-23T05:27:44.879Z,102011.89
2023-11-23T05:30:13.748Z,102000.70
2023-11-23T05:32:42.198Z,101991.77
2023-11-23T05:35:10.544Z,101989.80
2023-11-23T05:37:38.873Z,101992.71
2023-11-23T05:40:10.687Z,101994.19
2023-11-23T05:42:50.742Z,101999.06
2023-11-23T05:45:26.542Z,101994.64
2023-11-23T05:47:55.680Z,101991.20
2023-11-23T05:50:23.914Z,101990.34
2023-11-23T05:52:52.261Z,101984.13
2023-11-23T05:55:20.366Z,101980.73
2023-11-23T05:57:48.634Z,101979.55
2023-11-23T06:00:17.565Z,101981.56
2023-11-23T06:02:45.964Z,101974.95
2023-11-23T06:05:16.517Z,101980.15
2023-11-23T06:07:44.993Z,101984.46
2023-11-23T06:10:13.481Z,101987.48
2023-11-23T06:12:41.997Z,101981.30
2023-11-23T06:15:10.511Z,101970.17
2023-11-23T06:17:38.879Z,101963.59
2023-11-23T06:20:09.855Z,101960.57
2023-11-23T06:22:38.038Z,101955.84
2023-11-23T06:25:06.399Z,101945.21
2023-11-23T06:27:35.537Z,101942.11
2023-11-23T06:30:05.547Z,101939.15
2023-11-23T06:32:33.865Z,101936.89
2023-11-23T06:35:02.199Z,101934.52
2023-11-23T06:37:30.449Z,101934.58
2023-11-23T06:39:58.873Z,101926.63
2023-11-23T06:42:27.229Z,101932.56
2023-11-23T06:44:55.589Z,101929.55
2023-11-23T06:47:24.024Z,101926.92
2023-11-23T06:49:52.223Z,101917.16
2023-11-23T06:52:21.887Z,101917.92
2023-11-23T06:54:50.186Z,101915.27
2023-11-23T06:57:18.977Z,101910.36
2023-11-23T06:59:47.104Z,101908.09
2023-11-23T07:02:15.365Z,101902.76
2023-11-23T07:04:44.016Z,101890.79
2023-11-23T07:07:12.378Z,101880.52
2023-11-23T07:09:41.641Z,101873.08
2023-11-23T07:12:11.337Z,101864.62
2023-11-23T07:14:42.438Z,101858.48
2023-11-23T07:17:10.732Z,101850.52
2023-11-23T07:19:39.188Z,101843.84
2023-11-23T07:22:07.455Z,101838.25
2023-11-23T07:24:37.246Z,101830.40
2023-11-23T07:27:05.451Z,101830.27
2023-11-23T07:29:33.615Z,101820.64
2023-11-23T07:32:01.935Z,101820.39
2023-11-23T07:34:30.295Z,101814.80
2023-11-23T07:36:58.456Z,101809.75
2023-11-23T07:39:27.014Z,101804.46
2023-11-23T07:41:55.274Z,101805.41
2023-11-23T07:44:23.910Z,101800.24
2023-11-23T07:46:52.187Z,101793.63
2023-11-23T07:49:20.550Z,101788.73
2023-11-23T07:51:48.745Z,101782.85
2023-11-23T07:54:17.123Z,101776.54
2023-11-23T07:56:45.413Z,101769.95
2023-11-23T07:59:13.576Z,101771.50
2023-11-23T08:01:41.851Z,101767.98
2023-11-23T08:04:12.971Z,101757.45
2023-11-23T08:06:41.545Z,101760.04
2023-11-23T08:09:16.036Z,101753.27
2023-11-23T08:11:44.330Z,101752.45
2023-11-23T08:14:14.371Z,101743.35
2023-11-23T08:16:42.728Z,101737.21
2023-11-23T08:22:48.688Z,101723.49
2023-11-23T08:25:17.052Z,101718.16
2023-11-23T08:27:46.009Z,101718.85
2023-11-23T08:30:16.663Z,101717.56
2023-11-23T08:32:45.250Z,101714.94
2023-11-23T08:35:13.766Z,101715.87
2023-11-23T08:37:42.136Z,101715.60
2023-11-23T08:40:10.978Z,101713.14
2023-11-23T08:42:39.256Z,101706.05
2023-11-23T08:45:08.651Z,101699.81
2023-11-23T08:47:36.909Z,101689.80
2023-11-23T08:50:07.244Z,101690.70
2023-11-23T08:52:35.431Z,101682.52
2023-11-23T08:55:04.785Z,101682.00
2023-11-23T08:57:33.260Z,101673.33
2023-11-23T09:00:02.540Z,101664.38
2023-11-23T09:02:31.854Z,101652.95
2023-11-23T09:05:00.739Z,101644.30
2023-11-23T09:26:48.769Z,101569.00
2023-11-23T09:29:16.908Z,101562.84
2023-11-23T09:31:45.075Z,101563.80
2023-11-23T09:34:13.450Z,101561.03
2023-11-23T09:36:41.886Z,101551.14
2023-11-23T09:39:11.021Z,101544.67
2023-11-23T09:41:45.179Z,101545.08
2023-11-23T09:44:17.233Z,101542.27
2023-11-23T09:46:46.888Z,101539.52
2023-11-23T09:49:15.259Z,101531.55
2023-11-23T09:51:45.754Z,101518.27
2023-11-23T09:54:23.004Z,101518.12
2023-11-23T09:56:51.592Z,101501.48
2023-11-23T09:59:20.064Z,101492.83
2023-11-23T10:01:52.932Z,101482.98
2023-11-23T10:08:04.030Z,101458.93
2023-11-23T10:10:32.376Z,101459.26
2023-11-23T10:13:00.976Z,101448.77
2023-11-23T10:15:29.529Z,101442.81
2023-11-23T10:17:58.064Z,101434.75
2023-11-23T10:20:27.839Z,101427.80
2023-11-23T10:22:57.303Z,101423.80
2023-11-23T10:25:37.021Z,101409.36
2023-11-23T10:28:05.689Z,101407.32
2023-11-23T10:30:37.605Z,101392.70
2023-11-23T10:33:07.145Z,101387.06
2023-11-23T10:35:42.460Z,101379.33
2023-11-23T10:38:13.188Z,101378.95
2023-11-23T10:40:41.987Z,101371.91
2023-11-23T10:43:13.581Z,101364.95
2023-11-23T10:45:45.684Z,101360.10
2023-11-23T10:48:18.406Z,101356.73
2023-11-23T10:50:48.817Z,101343.52
2023-11-23T10:53:17.547Z,101338.25
2023-11-23T10:55:50.898Z,101334.95
2023-11-23T10:58:20.450Z,101328.70
2023-11-23T11:00:50.264Z,101322.34
2023-11-23T11:03:20.320Z,101322.36
2023-11-23T11:05:52.262Z,101315.67
2023-11-23T11:08:22.438Z,101309.79
2023-11-23T11:10:52.712Z,101301.10
2023-11-23T11:13:28.168Z,101302.98
2023-11-23T11:16:04.918Z,101298.02
2023-11-23T11:18:40.031Z,101294.98
2023-11-23T11:21:13.942Z,101286.92
2023-11-23T11:23:47.774Z,101278.84
2023-11-23T11:26:19.952Z,101279.80
2023-11-23T11:28:59.749Z,101273.05
2023-11-23T11:31:37.396Z,101265.90
2023-11-23T11:34:23.492Z,101257.73
2023-11-23T11:37:04.994Z,101244.55
2023-11-23T11:39:38.813Z,101238.43
2023-11-23T11:42:15.574Z,101233.59
2023-11-23T11:44:44.797Z,101231.09
2023-11-23T11:47:13.776Z,101226.73
2023-11-23T11:49:42.436Z,101219.09
2023-11-23T11:52:13.841Z,101209.85
2023-11-23T11:54:42.378Z,101200.21
2023-11-23T11:57:10.764Z,101193.42
2023-11-23T11:59:39.730Z,101186.27
2023-11-23T12:02:08.072Z,101172.87
2023-11-23T12:04:37.145Z,101165.74
2023-11-23T12:07:13.931Z,101156.71
2023-11-23T12:09:46.633Z,101149.30
2023-11-23T12:12:17.033Z,101139.33
2023-11-23T12:14:46.008Z,101129.45
2023-11-23T12:17:14.937Z,101125.66
2023-11-23T12:19:57.273Z,101118.19
2023-11-23T12:22:28.019Z,101120.20
2023-11-23T12:24:57.727Z,101111.04
2023-11-23T12:27:26.897Z,101108.73
2023-11-23T12:29:55.259Z,101102.58
2023-11-23T12:32:24.006Z,101094.02
2023-11-23T12:34:52.325Z,101087.59
2023-11-23T12:37:20.793Z,101078.44
2023-11-23T12:39:55.656Z,101074.29
2023-11-23T12:42:24.305Z,101066.10
2023-11-23T12:44:52.738Z,101063.03
2023-11-23T12:47:26.169Z,101058.73
2023-11-23T12:49:55.878Z,101051.17
2023-11-23T12:52:24.077Z,101050.71
2023-11-23T12:54:52.394Z,101043.09
2023-11-23T12:57:20.941Z,101042.73
2023-11-23T12:59:49.281Z,101028.77
2023-11-23T13:02:19.087Z,101025.44
2023-11-23T13:04:47.430Z,101023.86
2023-11-23T13:07:15.699Z,101013.52
2023-11-23T13:09:44.044Z,101006.61
2023-11-23T13:12:12.729Z,101005.61
2023-11-23T13:14:42.847Z,100999.76
2023-11-23T13:17:11.232Z,101000.95
2023-11-23T13:19:43.547Z,100989.88
2023-11-23T13:22:13.763Z,100990.55
2023-11-23T13:24:42.940Z,100984.85
2023-11-23T13:27:13.612Z,100982.60
2023-11-23T13:29:42.387Z,100978.60
2023-11-23T13:32:11.835Z,100982.17
2023-11-23T13:34:40.242Z,100984.72
2023-11-23T13:37:10.358Z,100981.05
2023-11-23T13:39:39.899Z,100975.50
2023-11-23T13:42:11.530Z,100974.10
2023-11-23T13:44:39.714Z,100967.19
2023-11-23T13:47:10.192Z,100958.05
2023-11-23T13:49:39.431Z,100948.35
2023-11-23T13:52:11.531Z,100945.70
2023-11-23T13:54:40.306Z,100940.33
2023-11-23T13:57:08.799Z,100938.71
2023-11-23T13:59:37.368Z,100930.89
2023-11-23T14:02:07.147Z,100927.73
2023-11-23T14:04:36.782Z,100924.73
2023-11-23T14:07:06.833Z,100915.91
2023-11-23T14:09:35.391Z,100915.91
2023-11-23T14:12:05.011Z,100913.86
2023-11-23T14:14:33.399Z,100914.56
2023-11-23T14:17:01.695Z,100913.89
2023-11-23T14:19:30.499Z,100914.40
2023-11-23T14:22:01.894Z,100908.73
2023-11-23T14:24:31.356Z,100902.85
2023-11-23T14:26:59.767Z,100899.20
2023-11-23T14:29:28.057Z,100898.32
2023-11-23T14:31:56.377Z,100890.35
2023-11-23T14:34:25.169Z,100886.55
2023-11-23T14:36:56.682Z,100883.61
2023-11-23T14:39:28.957Z,100878.30
2023-11-23T14:41:58.007Z,100873.65
2023-11-23T14:44:26.469Z,100868.34
2023-11-23T14:46:54.985Z,100859.90
2023-11-23T14:49:24.137Z,100858.18
2023-11-23T14:51:54.610Z,100859.40
2023-11-23T14:54:32.083Z,100856.29
2023-11-23T14:57:09.203Z,100844.02
2023-11-23T14:59:37.863Z,100841.05
2023-11-23T15:02:08.300Z,100835.48
2023-11-23T15:04:37.183Z,100830.69
2023-11-23T15:07:06.839Z,100825.19
2023-11-23T15:09:43.259Z,100822.41
2023-11-23T15:12:15.843Z,100818.63
2023-11-23T15:14:44.387Z,100813.23
2023-11-23T15:17:13.521Z,100804.60
2023-11-23T15:19:42.147Z,100796.87
2023-11-23T15:22:11.448Z,100788.02
2023-11-23T15:24:45.021Z,100775.74
2023-11-23T15:27:13.308Z,100768.83
2023-11-23T15:29:42.001Z,100761.08
2023-11-23T15:32:18.901Z,100756.59
2023-11-23T15:34:51.264Z,100751.08
2023-11-23T15:37:19.750Z,100744.18
2023-11-23T15:39:56.982Z,100738.83
2023-11-23T15:42:25.255Z,100734.98
2023-11-23T15:44:59.974Z,100730.79
2023-11-23T15:47:31.083Z,100729.04
2023-11-23T15:50:11.505Z,100727.94
2023-11-23T15:52:42.153Z,100724.95
2023-11-23T15:55:14.538Z,100724.23
2023-11-23T15:57:58.919Z,100720.91
2023-11-23T16:00:32.492Z,100717.23
2023-11-23T16:03:01.037Z,100717.02
2023-11-23T16:05:31.987Z,100714.08
2023-11-23T16:08:00.526Z,100708.23
2023-11-23T16:10:31.289Z,100703.55
2023-11-23T16:13:02.541Z,100700.25
2023-11-23T16:15:38.167Z,100690.41
2023-11-23T16:18:07.546Z,100687.08
2023-11-23T16:20:35.946Z,100681.51
2023-11-23T16:23:04.134Z,100678.16
2023-11-23T16:25:41.612Z,100674.81
2023-11-23T16:28:14.760Z,100670.91
2023-11-23T16:30:42.930Z,100664.65
2023-11-23T16:33:11.802Z,100657.15
2023-11-23T16:35:40.840Z,100651.92
2023-11-23T16:38:10.379Z,100647.57
2023-11-23T16:40:38.674Z,100645.36
2023-11-23T16:43:07.055Z,100642.29
2023-11-23T16:45:36.900Z,100636.46
2023-11-23T16:48:07.558Z,100631.17
2023-11-23T16:50:36.111Z,100633.27
2023-11-23T16:53:04.929Z,100626.55
2023-11-23T16:55:33.569Z,100616.89
2023-11-23T16:58:01.797Z,100615.12
2023-11-23T17:00:30.040Z,100604.75
2023-11-23T17:02:58.604Z,100596.10
2023-11-23T17:05:26.971Z,100596.74
2023-11-23T17:07:55.186Z,100598.25
2023-11-23T17:10:23.758Z,100590.48
2023-11-23T17:12:52.056Z,100581.14
2023-11-23T17:15:22.885Z,100581.98
2023-11-23T17:17:52.375Z,100578.50
2023-11-23T17:20:27.405Z,100580.86
2023-11-23T17:22:57.896Z,100584.09
2023-11-23T17:25:27.005Z,100582.17
2023-11-23T17:27:57.005Z,100581.98
2023-11-23T17:30:27.879Z,100574.54
2023-11-23T17:32:56.791Z,100561.58
2023-11-23T17:35:26.351Z,100551.04
2023-11-23T17:37:55.023Z,100554.80
2023-11-23T17:40:23.599Z,100560.08
2023-11-23T17:42:52.645Z,100545.21
2023-11-23T17:45:21.026Z,100538.60
2023-11-23T17:47:50.928Z,100525.95
2023-11-23T17:50:19.254Z,100514.34
2023-11-23T17:52:48.313Z,100517.93
2023-11-23T17:55:16.784Z,100509.84
2023-11-23T17:57:45.257Z,100506.63
2023-11-23T18:00:14.466Z,100504.25
2023-11-23T18:02:44.346Z,100497.41
2023-11-23T18:05:13.516Z,100493.95
2023-11-23T18:07:43.017Z,100487.02
2023-11-23T18:10:16.066Z,100481.44
2023-11-23T18:12:45.973Z,100474.10
2023-11-23T18:15:16.002Z,100468.45
2023-11-23T18:17:44.750Z,100469.05
2023-11-23T18:20:15.067Z,100462.59
2023-11-23T18:22:43.599Z,100464.43
2023-11-23T18:25:12.004Z,100462.82
2023-11-23T18:27:41.923Z,100452.09
2023-11-23T18:30:13.418Z,100454.45
2023-11-23T18:32:42.539Z,100448.48
2023-11-23T18:35:17.586Z,100444.77
2023-11-23T18:37:45.921Z,100436.81
2023-11-23T18:40:14.679Z,100435.39
2023-11-23T18:42:45.757Z,100431.34
2023-11-23T18:45:14.351Z,100425.05
2023-11-23T18:47:43.056Z,100424.26
2023-11-23T18:50:12.753Z,100419.52
2023-11-23T18:52:42.194Z,100418.98
2023-11-23T18:55:11.719Z,100410.65
2023-11-23T18:57:40.442Z,100405.09
2023-11-23T19:00:10.159Z,100400.03
2023-11-23T19:02:39.486Z,100392.90
2023-11-23T19:05:08.713Z,100387.69
2023-11-23T19:07:36.990Z,100387.29
2023-11-23T19:10:05.536Z,100383.61
2023-11-23T19:12:33.798Z,100378.57
2023-11-23T19:15:02.520Z,100376.48
2023-11-23T19:17:31.228Z,100375.96
2023-11-23T19:20:00.713Z,100375.96
2023-11-23T19:22:29.599Z,100376.48
2023-11-23T19:24:58.218Z,100375.24
2023-11-23T19:27:26.880Z,100372.23
2023-11-23T19:29:55.384Z,100371.67
2023-11-23T19:32:24.824Z,100364.09
2023-11-23T19:34:57.490Z,100353.58
2023-11-23T19:37:26.433Z,100350.83
2023-11-23T19:39:55.366Z,100346.21
2023-11-23T19:42:24.045Z,100342.30
2023-11-23T19:44:54.975Z,100338.92
2023-11-23T19:47:23.718Z,100331.41
2023-11-23T19:49:52.437Z,100325.10
2023-11-23T19:52:30.628Z,100321.50
2023-11-23T19:55:00.777Z,100313.06
2023-11-23T19:57:29.931Z,100303.02
2023-11-23T19:59:58.388Z,100301.55
2023-11-23T20:02:27.384Z,100298.91
2023-11-23T20:04:57.559Z,100293.77
2023-11-23T20:07:26.066Z,100296.70
2023-11-23T20:10:01.845Z,100300.47
2023-11-23T20:12:30.414Z,100299.91
2023-11-23T20:14:58.784Z,100294.05
2023-11-23T20:17:27.207Z,100291.46
2023-11-23T20:19:55.975Z,100284.77
2023-11-23T20:22:24.296Z,100287.14
2023-11-23T20:24:52.874Z,100293.05
2023-11-23T20:27:21.424Z,100289.02
2023-11-23T20:29:49.836Z,100286.84
2023-11-23T20:32:18.209Z,100285.39
2023-11-23T20:34:48.381Z,100287.91
2023-11-23T20:37:16.958Z,100278.08
2023-11-23T20:39:45.370Z,100278.02
2023-11-23T20:42:13.776Z,100270.94
2023-11-23T20:44:43.109Z,100262.63
2023-11-23T20:47:11.448Z,100252.27
2023-11-23T20:49:40.738Z,100248.59
2023-11-23T20:52:09.652Z,100246.46
2023-11-23T20:54:38.173Z,100242.62
2023-11-23T20:57:07.144Z,100240.12
2023-11-23T20:59:35.644Z,100240.89
2023-11-23T21:02:04.468Z,100234.63
2023-11-23T21:04:34.952Z,100228.58
2023-11-23T21:26:55.103Z,100182.55
2023-11-23T21:29:23.248Z,100176.31
2023-11-23T21:31:51.380Z,100172.73
2023-11-23T21:34:19.612Z,100167.80
2023-11-23T21:36:48.045Z,100160.48
2023-11-23T21:39:17.367Z,100156.44
2023-11-23T21:41:47.898Z,100146.05
2023-11-23T21:44:18.329Z,100139.60
2023-11-23T21:46:46.522Z,100135.91
2023-11-23T21:49:14.673Z,100130.27
2023-11-23T21:51:45.357Z,100121.86
2023-11-23T21:54:13.640Z,100114.35
2023-11-23T21:56:42.046Z,100108.74
2023-11-23T21:59:10.504Z,100110.68
2023-11-23T22:01:38.884Z,100103.20
2023-11-23T22:04:07.317Z,100095.23
2023-11-23T22:06:35.782Z,100092.72
2023-11-23T22:09:04.394Z,100089.05
2023-11-23T22:11:32.604Z,100085.02
2023-11-23T22:14:01.080Z,100072.39
2023-11-23T22:16:29.658Z,100070.38
2023-11-23T22:18:58.228Z,100069.58
2023-11-23T22:21:26.954Z,100069.44
2023-11-23T22:23:55.437Z,100061.09
2023-11-23T22:26:24.782Z,100049.10
2023-11-23T22:28:53.477Z,100035.38
2023-11-23T22:31:23.169Z,100029.40
2023-11-23T22:33:51.802Z,100019.27
2023-11-23T22:36:20.374Z,100006.94
2023-11-23T22:38:51.840Z,100000.27
2023-11-23T22:41:20.410Z,99993.27
2023-11-23T22:43:49.410Z,99991.94
2023-11-23T22:46:17.854Z,99993.85
2023-11-23T22:48:46.062Z,99984.24
2023-11-23T22:51:15.814Z,99979.92
2023-11-23T22:53:44.733Z,99985.45
2023-11-23T22:56:14.292Z,99977.91
2023-11-23T22:58:45.542Z,99979.15
2023-11-23T23:01:14.982Z,99970.28
2023-11-23T23:03:45.010Z,99966.02
2023-11-23T23:06:13.982Z,99955.59
2023-11-23T23:08:42.287Z,99953.89
2023-11-23T23:11:11.612Z,99942.73
2023-11-23T23:13:40.512Z,99935.08
2023-11-23T23:16:08.738Z,99938.48
2023-11-23T23:18:37.129Z,99940.52
2023-11-23T23:21:06.128Z,99933.87
2023-11-23T23:23:34.373Z,99929.77
2023-11-23T23:26:03.007Z,99924.61
2023-11-23T23:28:32.667Z,99918.44
2023-11-23T23:31:01.767Z,99907.92
2023-11-23T23:33:30.713Z,99903.97
2023-11-23T23:35:59.308Z,99903.44
2023-11-23T23:38:27.692Z,99903.25
2023-11-23T23:40:55.868Z,99894.31
2023-11-23T23:43:24.295Z,99888.45
2023-11-23T23:45:52.629Z,99880.73
2023-11-23T23:48:20.892Z,99873.88
2023-11-23T23:50:49.321Z,99873.22
2023-11-23T23:53:17.992Z,99869.13
2023-11-23T23:55:47.312Z,99859.36
2023-11-23T23:58:16.520Z,99851.27
